Time;durP1;ratioP1;P1;durP2;ratioP2;P2;SDS_P1;SDS_P2;PMS_P1;PMS_P2;Temp;Humidity;BMP_temperature;BMP_pressure;BME280_temperature;BME280_humidity;BME280_pressure;Samples;Min_cycle;Max_cycle;Signal;HPM_P1;HPM_P2
2022/12/24 00:00:06;;;;;;;33.40;17.92;;;;;;;4.18;100.00;97092.21;1752328;80;21020;-78
2022/12/24 00:02:33;;;;;;;52.98;38.08;;;;;;;4.08;100.00;97088.95;1751922;81;21715;-78
2022/12/24 00:05:00;;;;;;;51.02;29.72;;;;;;;4.11;100.00;97092.47;1752038;81;21022;-78
2022/12/24 00:07:28;;;;;;;41.65;23.07;;;;;;;4.22;100.00;97082.59;1752104;81;21025;-82
2022/12/24 00:09:55;;;;;;;28.25;17.50;;;;;;;4.28;100.00;97082.09;1752371;81;21076;-78
2022/12/24 00:12:22;;;;;;;23.52;13.88;;;;;;;4.31;100.00;97082.90;1752138;81;21327;-81
2022/12/24 00:14:49;;;;;;;26.02;13.38;;;;;;;4.33;100.00;97072.17;1752652;81;21565;-81
2022/12/24 00:17:16;;;;;;;23.80;14.60;;;;;;;4.14;100.00;97067.81;1752120;81;21441;-78
2022/12/24 00:19:43;;;;;;;32.80;18.62;;;;;;;4.05;100.00;97055.16;1751888;81;21030;-81
2022/12/24 00:22:10;;;;;;;23.18;16.12;;;;;;;3.92;100.00;97043.83;1752153;81;20978;-81
2022/12/24 00:24:37;;;;;;;23.98;13.30;;;;;;;3.88;100.00;97039.27;1752147;81;21041;-77
2022/12/24 00:27:04;;;;;;;33.38;20.68;;;;;;;3.79;100.00;97030.11;1751923;81;21014;-78
2022/12/24 00:29:32;;;;;;;30.10;16.82;;;;;;;3.79;100.00;97036.81;1752065;81;20971;-78
2022/12/24 00:31:59;;;;;;;25.12;14.83;;;;;;;3.77;100.00;97030.38;1752535;81;21021;-78
2022/12/24 00:34:26;;;;;;;24.87;13.22;;;;;;;3.66;100.00;97028.15;1752018;81;21041;-78
2022/12/24 00:36:53;;;;;;;21.55;11.70;;;;;;;3.57;100.00;97027.56;1752494;81;21437;-81
2022/12/24 00:39:20;;;;;;;20.95;12.78;;;;;;;3.54;100.00;97023.53;1752183;81;21048;-81
2022/12/24 00:41:47;;;;;;;26.20;15.45;;;;;;;3.54;100.00;97030.23;1752095;81;21005;-81
2022/12/24 00:44:14;;;;;;;23.60;16.32;;;;;;;3.56;100.00;97028.09;1752087;81;21020;-78
2022/12/24 00:46:41;;;;;;;29.77;15.25;;;;;;;3.53;100.00;97031.30;1752331;81;20997;-78
2022/12/24 00:49:08;;;;;;;25.37;15.48;;;;;;;3.50;100.00;97023.76;1752078;81;21029;-78
2022/12/24 00:51:36;;;;;;;29.40;16.15;;;;;;;3.45;100.00;97022.41;1717348;82;21060;-78
2022/12/24 00:54:03;;;;;;;28.35;18.00;;;;;;;3.34;100.00;97026.89;1732483;81;20996;-78
2022/12/24 00:56:30;;;;;;;32.25;17.25;;;;;;;3.31;100.00;97024.71;1750360;81;21097;-81
2022/12/24 00:58:57;;;;;;;29.35;17.00;;;;;;;3.33;100.00;97019.93;1752172;81;21025;-82
2022/12/24 01:01:24;;;;;;;28.05;16.80;;;;;;;3.34;100.00;97013.51;1752118;81;21445;-81
2022/12/24 01:05:08;;;;;;;29.52;16.73;;;;;;;3.35;100.00;96998.24;1752069;81;22164;-78
2022/12/24 01:06:20;;;;;;;33.35;19.40;;;;;;;3.32;100.00;96992.05;1748125;81;21077;-82
2022/12/24 01:08:50;;;;;;;32.53;18.37;;;;;;;3.38;100.00;96996.38;1752055;81;21072;-81
2022/12/24 01:11:17;;;;;;;32.35;17.62;;;;;;;3.43;100.00;96982.23;1752177;81;21280;-82
2022/12/24 01:13:44;;;;;;;30.57;18.20;;;;;;;3.45;100.00;96981.42;1752088;81;21529;-81
2022/12/24 01:16:17;;;;;;;32.85;18.40;;;;;;;3.38;100.00;96975.76;1752320;81;21176;-80
2022/12/24 01:18:44;;;;;;;30.17;18.60;;;;;;;3.34;100.00;96966.64;1751856;81;21517;-81
2022/12/24 01:21:11;;;;;;;31.52;19.70;;;;;;;3.38;100.00;96964.23;1724908;81;21005;-78
2022/12/24 01:23:38;;;;;;;41.83;26.37;;;;;;;3.44;100.00;96981.16;1751924;81;21506;-81
2022/12/24 01:26:05;;;;;;;53.10;30.65;;;;;;;3.53;100.00;96986.30;1752261;81;21069;-78
2022/12/24 01:28:32;;;;;;;54.15;29.02;;;;;;;3.65;100.00;96989.03;1724328;81;21153;-81
2022/12/24 01:30:59;;;;;;;36.33;20.57;;;;;;;3.70;100.00;96986.12;1752234;81;21343;-78
2022/12/24 01:33:29;;;;;;;29.70;19.77;;;;;;;3.64;100.00;96983.94;1751912;81;21021;-78
2022/12/24 01:35:56;;;;;;;34.80;22.25;;;;;;;3.53;100.00;96980.41;1752326;81;21057;-78
2022/12/24 01:38:23;;;;;;;34.13;19.77;;;;;;;3.52;100.00;96978.80;1751959;81;21017;-81
2022/12/24 01:43:35;;;;;;;33.02;18.32;;;;;;;3.54;100.00;96980.67;1751732;81;21018;-77
2022/12/24 01:46:08;;;;;;;35.98;22.55;;;;;;;3.56;100.00;96981.21;1752352;81;21013;-81
2022/12/24 01:48:53;;;;;;;32.70;20.02;;;;;;;3.46;100.00;96979.02;1751729;81;21057;-78
2022/12/24 01:51:40;;;;;;;43.50;21.73;;;;;;;3.46;100.00;96977.14;1751250;81;21075;-81
2022/12/24 01:54:32;;;;;;;32.58;20.02;;;;;;;3.45;100.00;96982.23;1771118;81;21433;-78
2022/12/24 01:57:08;;;;;;;38.88;19.90;;;;;;;3.42;100.00;96973.39;1749009;82;21070;-78
2022/12/24 01:59:36;;;;;;;37.48;21.87;;;;;;;3.45;100.00;96976.07;1761022;81;21019;-81
2022/12/24 02:02:03;;;;;;;37.95;22.58;;;;;;;3.47;100.00;96972.06;1761289;81;21067;-81
2022/12/24 02:05:02;;;;;;;33.58;19.95;;;;;;;3.50;100.00;96973.41;1760963;81;21000;-81
2022/12/24 02:07:28;;;;;;;45.55;26.45;;;;;;;3.52;100.00;96968.08;1761233;81;21047;-82
2022/12/24 02:09:57;;;;;;;41.70;22.65;;;;;;;3.50;100.00;96968.85;1761154;81;21014;-81
2022/12/24 02:12:26;;;;;;;33.90;19.75;;;;;;;3.51;100.00;96962.45;1760995;81;21027;-81
2022/12/24 02:14:53;;;;;;;32.25;20.45;;;;;;;3.48;100.00;96948.22;1761377;81;21586;-81
2022/12/24 02:17:49;;;;;;;26.48;16.00;;;;;;;3.45;100.00;96946.61;1761180;81;21003;-78
2022/12/24 02:20:40;;;;;;;30.20;17.95;;;;;;;3.37;100.00;96946.03;1761376;81;21738;-81
2022/12/24 02:23:44;;;;;;;35.98;19.70;;;;;;;3.31;100.00;96951.61;1761158;81;20988;-81
2022/12/24 02:26:31;;;;;;;36.13;20.52;;;;;;;3.27;100.00;96945.98;1761426;81;20980;-77
2022/12/24 02:29:22;;;;;;;27.25;17.42;;;;;;;3.38;100.00;96943.63;1713034;81;21026;-81
2022/12/24 02:31:59;;;;;;;28.27;15.55;;;;;;;3.37;100.00;96945.23;1761270;81;21078;-81
2022/12/24 02:34:45;;;;;;;31.42;18.90;;;;;;;3.36;100.00;96939.59;1760993;81;21583;-78
2022/12/24 02:37:21;;;;;;;31.33;16.65;;;;;;;3.25;100.00;96941.42;1761177;81;22036;-78
2022/12/24 02:39:55;;;;;;;40.23;21.17;;;;;;;3.26;100.00;96942.22;1760517;81;21000;-81
2022/12/24 02:42:26;;;;;;;49.77;28.83;;;;;;;3.32;100.00;96937.16;1761196;81;21067;-78
2022/12/24 02:44:58;;;;;;;29.30;17.55;;;;;;;3.41;100.00;96934.25;1761304;81;21078;-78
2022/12/24 02:47:25;;;;;;;46.35;26.05;;;;;;;3.41;100.00;96939.61;1761108;81;21153;-78
2022/12/24 02:49:52;;;;;;;55.40;31.45;;;;;;;3.51;100.00;96941.56;1758076;81;21070;-81
2022/12/24 02:52:32;;;;;;;39.67;22.98;;;;;;;3.48;100.00;96948.22;1730957;82;21082;-78
2022/12/24 02:55:14;;;;;;;41.85;24.67;;;;;;;3.45;100.00;96952.77;1734392;81;22140;-81
2022/12/24 02:58:13;;;;;;;41.83;25.12;;;;;;;3.49;100.00;96955.19;1761237;81;21036;-78
2022/12/24 03:01:15;;;;;;;;;;;;;;;3.50;100.00;96955.99;1763845;81;21061;-78
2022/12/24 03:03:58;;;;;;;46.90;27.35;;;;;;;3.63;100.00;96967.59;1758458;81;20190;-78
2022/12/24 03:07:00;;;;;;;39.42;24.55;;;;;;;3.58;100.00;96967.55;1761309;81;21535;-81
2022/12/24 03:09:38;;;;;;;44.53;28.35;;;;;;;3.61;100.00;96964.38;1761072;81;21035;-81
2022/12/24 03:12:10;;;;;;;40.63;23.85;;;;;;;3.59;100.00;96967.83;1761454;81;21011;-78
2022/12/24 03:14:38;;;;;;;30.20;20.40;;;;;;;3.63;100.00;96977.77;1761067;81;21031;-79
2022/12/24 03:17:05;;;;;;;29.35;19.07;;;;;;;3.66;100.00;96972.42;1761338;81;21014;-78
2022/12/24 03:19:32;;;;;;;27.37;19.50;;;;;;;3.68;100.00;96980.49;1760958;81;21011;-78
2022/12/24 03:21:59;;;;;;;26.37;17.10;;;;;;;3.75;100.00;96976.75;1761249;81;21055;-81
2022/12/24 03:24:27;;;;;;;22.05;15.20;;;;;;;3.78;100.00;96982.41;1760910;81;21011;-83
2022/12/24 03:26:56;;;;;;;23.75;15.08;;;;;;;3.77;100.00;96982.67;1761067;81;21666;-81
2022/12/24 03:29:23;;;;;;;20.02;13.43;;;;;;;3.73;100.00;96976.21;1760995;81;21019;-78
2022/12/24 03:31:52;;;;;;;46.28;31.60;;;;;;;3.78;100.00;96978.92;1761210;81;21503;-78
2022/12/24 03:34:19;;;;;;;61.80;30.57;;;;;;;3.72;100.00;96985.31;1761158;81;21034;-81
2022/12/24 03:36:46;;;;;;;64.65;38.85;;;;;;;3.70;100.00;96989.60;1761373;81;21304;-81
2022/12/24 03:39:13;;;;;;;53.30;30.40;;;;;;;3.58;100.00;97000.50;1760879;81;21552;-81
2022/12/24 03:41:39;;;;;;;37.88;24.47;;;;;;;3.57;100.00;96992.20;1761216;81;21003;-78
2022/12/24 03:44:06;;;;;;;44.58;32.38;;;;;;;3.51;100.00;96993.80;1760918;81;21023;-78
2022/12/24 03:46:33;;;;;;;36.03;24.15;;;;;;;3.46;100.00;96999.91;1761264;81;21113;-78
2022/12/24 03:49:00;;;;;;;47.55;31.62;;;;;;;3.49;100.00;96999.38;1761078;81;21475;-78
2022/12/24 03:51:27;;;;;;;43.75;30.97;;;;;;;3.39;100.00;97006.83;1738282;81;21167;-78
2022/12/24 03:53:55;;;;;;;47.62;29.65;;;;;;;3.37;100.00;97009.50;1730578;82;21023;-81
2022/12/24 03:56:22;;;;;;;50.80;33.38;;;;;;;3.43;100.00;97024.55;1721864;81;21058;-78
2022/12/24 03:58:49;;;;;;;45.03;29.95;;;;;;;3.46;100.00;97014.64;1761000;81;21467;-78
2022/12/24 04:01:16;;;;;;;40.48;28.90;;;;;;;3.50;100.00;97018.94;1761261;81;21011;-78
2022/12/24 04:03:43;;;;;;;42.10;29.27;;;;;;;3.51;100.00;97003.97;1731227;81;21605;-81
2022/12/24 04:06:13;;;;;;;43.52;27.27;;;;;;;3.57;100.00;97014.16;1761414;81;20988;-81
2022/12/24 04:08:40;;;;;;;35.92;27.60;;;;;;;3.56;100.00;97002.64;1761032;81;21015;-81
2022/12/24 04:11:10;;;;;;;42.43;32.67;;;;;;;3.48;100.00;97005.00;1731159;81;20995;-78
2022/12/24 04:13:37;;;;;;;47.73;33.00;;;;;;;3.43;100.00;97002.31;1761222;81;21051;-81
2022/12/24 04:16:09;;;;;;;35.75;24.90;;;;;;;3.41;100.00;96997.19;1761471;81;21153;-81
2022/12/24 04:18:36;;;;;;;29.20;18.98;;;;;;;3.40;100.00;97004.42;1761239;81;21530;-78
2022/12/24 04:21:03;;;;;;;35.63;24.72;;;;;;;3.37;100.00;97005.48;1753567;81;21080;-78
2022/12/24 04:23:32;;;;;;;31.07;22.00;;;;;;;3.35;100.00;97007.62;1730983;82;21503;-77
2022/12/24 04:26:01;;;;;;;28.38;20.68;;;;;;;3.30;100.00;96999.00;1731276;82;21579;-81
2022/12/24 04:28:29;;;;;;;29.25;16.27;;;;;;;3.28;100.00;96998.46;1731189;82;21166;-78
2022/12/24 04:31:00;;;;;;;21.50;12.80;;;;;;;3.36;100.00;97003.88;1731429;82;21027;-81
2022/12/24 04:33:28;;;;;;;23.65;14.90;;;;;;;3.48;100.00;96997.77;1730821;82;21051;-81
2022/12/24 04:36:00;;;;;;;14.68;9.00;;;;;;;3.57;100.00;96996.22;1730978;82;21011;-81
2022/12/24 04:38:27;;;;;;;12.35;8.85;;;;;;;3.76;100.00;96995.77;1730824;82;21055;-81
2022/12/24 04:41:01;;;;;;;12.53;5.97;;;;;;;3.98;100.00;96997.77;1731145;82;21190;-81
2022/12/24 04:43:31;;;;;;;9.53;5.95;;;;;;;4.21;100.00;97001.88;1702560;82;21446;-81
2022/12/24 04:46:17;;;;;;;8.35;5.12;;;;;;;4.41;100.00;97003.80;1731014;82;21508;-81
2022/12/24 04:48:41;;;;;;;7.28;4.42;;;;;;;4.59;100.00;97004.64;1729537;82;21543;-78
2022/12/24 04:51:08;;;;;;;9.93;7.90;;;;;;;4.70;100.00;97004.95;1748066;81;21048;-81
2022/12/24 04:53:35;;;;;;;6.50;4.50;;;;;;;4.81;100.00;97005.22;1757656;81;21180;-81
2022/12/24 04:56:03;;;;;;;6.37;4.22;;;;;;;4.92;100.00;96999.86;1747739;82;20978;-78
2022/12/24 04:58:29;;;;;;;6.08;4.33;;;;;;;5.01;100.00;97006.30;1780087;80;21441;-82
2022/12/24 05:00:56;;;;;;;3.65;3.17;;;;;;;5.16;100.00;97010.88;1761292;81;21069;-78
2022/12/24 05:03:24;;;;;;;2.67;1.87;;;;;;;5.32;100.00;97013.83;1683218;81;21027;-81
2022/12/24 05:05:51;;;;;;;4.30;2.60;;;;;;;5.45;100.00;97015.94;1761387;81;21044;-81
2022/12/24 05:08:18;;;;;;;4.67;3.08;;;;;;;5.63;100.00;97023.44;1760891;81;21004;-78
2022/12/24 05:10:55;;;;;;;3.65;2.58;;;;;;;5.75;100.00;97022.36;1761390;81;21460;-80
2022/12/24 05:13:23;;;;;;;6.10;3.52;;;;;;;5.84;100.00;97026.09;1761346;81;20992;-82
2022/12/24 05:15:50;;;;;;;4.47;3.27;;;;;;;5.92;100.00;97023.68;1761429;81;21471;-81
2022/12/24 05:18:17;;;;;;;3.85;3.45;;;;;;;5.97;100.00;97022.84;1731152;81;21758;-81
2022/12/24 05:20:44;;;;;;;2.85;1.90;;;;;;;6.06;100.00;97027.92;1761173;81;21027;-82
2022/12/24 05:26:20;;;;;;;4.62;2.62;;;;;;;6.27;100.00;97037.27;1761518;81;21460;-78
2022/12/24 05:28:50;;;;;;;4.85;3.20;;;;;;;6.28;100.00;97036.19;1761230;81;20995;-80
2022/12/24 05:31:17;;;;;;;4.40;2.98;;;;;;;6.26;100.00;97044.55;1760697;81;21027;-79
2022/12/24 05:33:44;;;;;;;5.03;2.98;;;;;;;6.28;100.00;97046.95;1761335;81;21031;-81
2022/12/24 05:36:11;;;;;;;5.40;3.47;;;;;;;6.31;100.00;97051.77;1761537;81;20995;-81
2022/12/24 05:38:38;;;;;;;7.08;4.20;;;;;;;6.34;100.00;97049.35;1761186;81;20972;-78
2022/12/24 05:41:06;;;;;;;14.18;9.80;;;;;;;6.42;100.00;97055.51;1761503;81;21054;-81
2022/12/24 05:43:32;;;;;;;14.98;9.40;;;;;;;6.47;100.00;97050.63;1761099;81;22073;-82
2022/12/24 05:46:07;;;;;;;8.48;4.15;;;;;;;6.47;100.00;97042.02;1761368;81;21003;-79
2022/12/24 05:48:34;;;;;;;3.12;2.12;;;;;;;6.51;100.00;97053.05;1761198;81;21086;-82
2022/12/24 05:51:05;;;;;;;4.92;2.50;;;;;;;6.53;100.00;97049.53;1743915;81;21534;-78
2022/12/24 05:53:33;;;;;;;5.03;3.10;;;;;;;6.58;100.00;97058.94;1730899;82;21027;-79
2022/12/24 05:56:12;;;;;;;4.28;2.00;;;;;;;6.60;100.00;97059.45;1746997;81;21843;-82
2022/12/24 05:58:40;;;;;;;4.70;2.80;;;;;;;6.65;100.00;97062.11;1731083;81;21027;-82
2022/12/24 06:01:07;;;;;;;5.10;2.87;;;;;;;6.58;100.00;97057.59;1761387;81;21034;-82
2022/12/24 06:03:34;;;;;;;4.12;2.33;;;;;;;6.47;100.00;97051.43;1761213;81;21102;-81
2022/12/24 06:06:05;;;;;;;5.83;3.52;;;;;;;6.45;100.00;97060.88;1761350;81;21007;-82
2022/12/24 06:08:33;;;;;;;4.87;2.52;;;;;;;6.44;100.00;97063.30;1760773;81;21448;-82
2022/12/24 06:11:03;;;;;;;4.67;2.65;;;;;;;6.43;100.00;97061.69;1761317;81;21102;-81
2022/12/24 06:13:30;;;;;;;3.35;2.40;;;;;;;6.45;100.00;97061.67;1761099;81;21517;-81
2022/12/24 06:15:58;;;;;;;4.08;2.55;;;;;;;6.43;100.00;97070.57;1761275;81;20996;-81
2022/12/24 06:18:25;;;;;;;4.22;2.27;;;;;;;6.44;100.00;97072.72;1761559;81;20999;-81
2022/12/24 06:20:53;;;;;;;3.22;2.67;;;;;;;6.44;100.00;97074.87;1761444;81;21869;-81
2022/12/24 06:23:21;;;;;;;4.10;2.77;;;;;;;6.47;100.00;97077.54;1760900;81;37809;-81
2022/12/24 06:25:49;;;;;;;6.10;3.52;;;;;;;6.48;100.00;97091.26;1761542;81;20968;-81
2022/12/24 06:28:16;;;;;;;2.90;1.90;;;;;;;6.46;100.00;97095.58;1761140;81;22465;-81
2022/12/24 06:30:47;;;;;;;4.85;2.83;;;;;;;6.47;100.00;97089.65;1761415;81;21031;-81
2022/12/24 06:33:14;;;;;;;5.70;2.87;;;;;;;6.48;100.00;97086.67;1761149;81;21099;-81
2022/12/24 06:35:41;;;;;;;3.60;3.02;;;;;;;6.48;100.00;97090.72;1761208;81;21507;-80
2022/12/24 06:38:08;;;;;;;3.77;2.42;;;;;;;6.47;100.00;97085.61;1761243;81;21063;-83
2022/12/24 06:40:38;;;;;;;8.18;2.80;;;;;;;6.47;100.00;97087.77;1750309;81;21521;-81
2022/12/24 06:43:05;;;;;;;4.50;2.77;;;;;;;6.50;100.00;97090.47;1730977;82;21468;-81
2022/12/24 06:45:32;;;;;;;3.45;2.80;;;;;;;6.49;100.00;97097.73;1731078;82;21050;-81
2022/12/24 06:47:59;;;;;;;4.03;3.08;;;;;;;6.46;100.00;97096.92;1731084;82;22052;-80
2022/12/24 06:50:26;;;;;;;5.40;3.27;;;;;;;6.46;100.00;97104.99;1711338;81;21070;-82
2022/12/24 06:52:53;;;;;;;5.15;2.70;;;;;;;6.46;100.00;97110.38;1750586;81;20997;-81
2022/12/24 06:55:20;;;;;;;9.63;5.72;;;;;;;6.46;100.00;97106.88;1768072;81;20989;-81
2022/12/24 06:57:47;;;;;;;7.80;4.87;;;;;;;6.48;100.00;97116.28;1732147;82;21120;-81
2022/12/24 07:00:14;;;;;;;8.03;5.08;;;;;;;6.48;100.00;97127.05;1750761;81;21001;-81
2022/12/24 07:02:42;;;;;;;6.83;2.42;;;;;;;6.49;100.00;97125.16;1732131;82;21425;-81
2022/12/24 07:05:10;;;;;;;4.05;2.50;;;;;;;6.54;100.00;97125.16;1750878;81;21469;-80
2022/12/24 07:07:38;;;;;;;5.10;2.92;;;;;;;6.58;100.00;97131.61;1703338;82;20971;-82
2022/12/24 07:10:06;;;;;;;4.17;2.40;;;;;;;6.59;100.00;97137.27;1751172;81;21050;-81
2022/12/24 07:12:34;;;;;;;8.30;3.72;;;;;;;6.60;100.00;97141.56;1732331;82;20982;-81
2022/12/24 07:15:01;;;;;;;5.55;3.33;;;;;;;6.60;100.00;97136.17;1750870;81;20994;-80
2022/12/24 07:17:28;;;;;;;5.72;3.95;;;;;;;6.64;100.00;97139.11;1732160;82;21058;-80
2022/12/24 07:19:55;;;;;;;6.42;4.25;;;;;;;6.64;100.00;97134.53;1750975;81;21044;-80
2022/12/24 07:22:22;;;;;;;5.30;3.50;;;;;;;6.68;100.00;97140.19;1732001;82;21182;-81
2022/12/24 07:24:49;;;;;;;5.55;3.22;;;;;;;6.76;100.00;97150.38;1750741;82;21516;-80
2022/12/24 07:27:16;;;;;;;8.10;4.35;;;;;;;6.86;100.00;97156.27;1732056;82;21010;-80
2022/12/24 07:29:43;;;;;;;6.80;2.92;;;;;;;6.91;100.00;97158.37;1750695;82;21064;-80
2022/12/24 07:32:10;;;;;;;6.90;3.87;;;;;;;6.93;100.00;97153.54;1732148;82;21054;-80
2022/12/24 07:34:38;;;;;;;6.10;3.02;;;;;;;6.97;100.00;97157.81;1750671;82;21157;-80
2022/12/24 07:37:06;;;;;;;7.37;3.35;;;;;;;7.04;100.00;97159.13;1732189;82;21015;-80
2022/12/24 07:39:33;;;;;;;7.95;4.95;;;;;;;7.03;100.00;97162.11;1751095;82;21509;-80
2022/12/24 07:42:00;;;;;;;4.78;3.92;;;;;;;7.02;100.00;97161.30;1732074;82;21011;-80
2022/12/24 07:44:27;;;;;;;4.40;3.00;;;;;;;7.04;100.00;97170.45;1750699;82;21010;-80
2022/12/24 07:46:54;;;;;;;6.30;4.25;;;;;;;7.07;100.00;97163.14;1732200;82;21083;-80
2022/12/24 07:49:21;;;;;;;5.00;2.45;;;;;;;7.11;100.00;97170.15;1750795;82;21424;-80
2022/12/24 07:51:47;;;;;;;4.70;2.77;;;;;;;7.15;100.00;97176.58;1744509;82;21024;-80
2022/12/24 07:54:14;;;;;;;4.08;2.77;;;;;;;7.16;100.00;97171.45;1768491;81;21016;-79
2022/12/24 07:56:42;;;;;;;5.80;3.37;;;;;;;7.18;100.00;97169.28;1761562;81;21000;-81
2022/12/24 07:59:13;;;;;;;4.53;3.62;;;;;;;7.19;100.00;97178.45;1759005;81;21157;-80
2022/12/24 08:01:40;;;;;;;5.83;3.02;;;;;;;7.26;100.00;97176.78;1765628;79;21020;-80
2022/12/24 08:04:07;;;;;;;7.45;4.65;;;;;;;7.28;100.00;97176.78;1747657;79;21492;-80
2022/12/24 08:06:34;;;;;;;4.83;3.52;;;;;;;7.28;100.00;97186.76;1721945;83;21031;-80
2022/12/24 08:09:01;;;;;;;4.87;2.85;;;;;;;7.29;100.00;97191.06;1748014;81;21051;-79
2022/12/24 08:11:28;;;;;;;5.62;3.50;;;;;;;7.33;100.00;97198.84;1769495;79;21765;-80
2022/12/24 08:13:55;;;;;;;4.47;3.00;;;;;;;7.36;100.00;97194.26;1764662;81;21092;-80
2022/12/24 08:16:22;;;;;;;6.03;3.25;;;;;;;7.39;100.00;97200.43;1765031;81;21468;-80
2022/12/24 08:18:49;;;;;;;4.65;2.90;;;;;;;7.46;100.00;97204.17;1737679;81;20993;-80
2022/12/24 08:21:16;;;;;;;4.33;2.80;;;;;;;7.49;100.00;97196.31;1748878;79;21009;-80
2022/12/24 08:23:42;;;;;;;6.15;3.00;;;;;;;7.48;100.00;97199.30;1744976;81;21005;-80
2022/12/24 08:26:10;;;;;;;7.70;3.87;;;;;;;7.49;100.00;97197.66;1771608;79;21472;-80
2022/12/24 08:28:37;;;;;;;5.63;3.80;;;;;;;7.48;100.00;97196.06;1812402;79;20978;-80
2022/12/24 08:31:05;;;;;;;14.28;4.40;;;;;;;7.50;100.00;97214.64;1780401;80;21529;-79
2022/12/24 08:33:32;;;;;;;6.25;3.55;;;;;;;7.50;100.00;97214.64;1761338;80;21048;-80
2022/12/24 08:36:00;;;;;;;9.28;3.42;;;;;;;7.48;100.00;97207.38;1764978;79;21163;-80
2022/12/24 08:38:27;;;;;;;7.62;4.03;;;;;;;7.49;100.00;97204.95;1774099;79;21013;-80
2022/12/24 08:40:54;;;;;;;6.47;3.75;;;;;;;7.54;100.00;97220.56;1759287;79;21000;-80
2022/12/24 08:43:21;;;;;;;7.80;4.20;;;;;;;7.58;100.00;97224.84;1741525;81;21022;-80
2022/12/24 08:45:48;;;;;;;5.22;3.10;;;;;;;7.68;100.00;97241.49;1763814;81;21078;-80
2022/12/24 08:48:15;;;;;;;5.50;3.27;;;;;;;7.73;100.00;97233.38;1762991;79;21518;-80
2022/12/24 08:50:42;;;;;;;5.80;3.77;;;;;;;7.81;100.00;97228.73;1767948;79;21008;-80
2022/12/24 08:53:09;;;;;;;9.88;4.47;;;;;;;7.80;100.00;97222.55;1759403;79;21541;-80
2022/12/24 08:55:37;;;;;;;6.58;4.12;;;;;;;7.86;100.00;97230.87;1767891;79;21023;-80
2022/12/24 08:58:03;;;;;;;8.23;5.47;;;;;;;7.89;100.00;97231.64;1765717;79;21477;-80
2022/12/24 09:00:30;;;;;;;11.28;5.95;;;;;;;7.89;100.00;97229.49;1763956;79;20941;-79
2022/12/24 09:02:57;;;;;;;8.50;4.53;;;;;;;7.89;100.00;97233.54;1762851;79;21565;-80
2022/12/24 09:05:24;;;;;;;6.83;3.80;;;;;;;7.90;100.00;97243.23;1748529;79;21019;-80
2022/12/24 09:07:52;;;;;;;9.65;5.00;;;;;;;7.90;100.00;97243.23;1774629;79;20985;-80
2022/12/24 09:10:18;;;;;;;9.53;4.37;;;;;;;7.90;100.00;97258.08;1767241;79;21066;-80
2022/12/24 09:12:46;;;;;;;11.15;5.53;;;;;;;7.90;100.00;97258.08;1763144;79;21061;-80
2022/12/24 09:15:13;;;;;;;9.60;5.20;;;;;;;7.91;100.00;97264.53;1764199;79;21475;-81
2022/12/24 09:17:40;;;;;;;9.05;5.20;;;;;;;7.91;100.00;97264.53;1773533;79;21008;-79
2022/12/24 09:20:08;;;;;;;10.75;6.33;;;;;;;7.95;100.00;97270.19;1764938;79;21512;-79
2022/12/24 09:22:36;;;;;;;9.38;4.65;;;;;;;7.94;100.00;97259.11;1754455;79;21070;-79
2022/12/24 09:25:05;;;;;;;6.40;4.03;;;;;;;8.04;100.00;97267.70;1769696;79;22082;-80
2022/12/24 09:27:32;;;;;;;7.25;4.40;;;;;;;8.11;100.00;97263.56;1766343;79;21011;-79
2022/12/24 09:29:59;;;;;;;7.08;4.42;;;;;;;8.20;100.00;97267.30;1759656;79;20977;-79
2022/12/24 09:32:26;;;;;;;12.78;6.50;;;;;;;8.30;100.00;97273.16;1759563;81;21078;-79
2022/12/24 09:34:53;;;;;;;10.08;4.75;;;;;;;8.38;100.00;97276.62;1763592;81;21047;-79
2022/12/24 09:37:20;;;;;;;16.87;7.85;;;;;;;8.40;100.00;97273.09;1762518;79;21198;-79
2022/12/24 09:39:46;;;;;;;8.83;4.35;;;;;;;8.42;100.00;97276.31;1775325;79;21444;-79
2022/12/24 09:42:42;;;;;;;8.78;4.60;;;;;;;8.37;100.00;97276.34;1758064;79;21079;-80
2022/12/24 09:45:23;;;;;;;8.68;4.97;;;;;;;8.36;100.00;97280.13;1733218;82;21070;-79
2022/12/24 09:48:00;;;;;;;9.75;5.60;;;;;;;8.27;100.00;97274.25;1734255;82;21031;-79
2022/12/24 09:50:49;;;;;;;12.15;5.53;;;;;;;8.19;100.00;97272.95;1742850;81;21084;-80
2022/12/24 09:53:33;;;;;;;8.60;5.05;;;;;;;8.22;100.00;97283.75;1764276;79;21518;-79
2022/12/24 09:56:03;;;;;;;10.50;4.70;;;;;;;8.14;100.00;97300.80;1747708;81;21121;-80
2022/12/24 09:58:38;;;;;;;7.65;3.83;;;;;;;8.12;100.00;97303.53;1750120;82;21496;-79
2022/12/24 10:01:05;;;;;;;14.98;7.05;;;;;;;8.09;100.00;97305.42;1765044;80;21091;-78
2022/12/24 10:03:32;;;;;;;11.60;4.85;;;;;;;8.09;100.00;97306.22;1787251;80;21052;-80
2022/12/24 10:06:23;;;;;;;8.78;4.72;;;;;;;8.13;100.00;97307.84;1731765;82;20997;-80
2022/12/24 10:09:17;;;;;;;7.08;4.42;;;;;;;8.06;100.00;97309.49;1731958;81;21003;-80
2022/12/24 10:12:01;;;;;;;12.13;5.78;;;;;;;8.02;100.00;97318.41;1739508;80;21023;-80
2022/12/24 10:14:53;;;;;;;10.88;6.72;;;;;;;8.02;100.00;97318.41;1771135;80;21013;-80
2022/12/24 10:17:43;;;;;;;10.65;4.72;;;;;;;7.99;100.00;97312.23;1732123;81;21176;-80
2022/12/24 10:21:00;;;;;;;11.35;4.85;;;;;;;7.99;100.00;97312.23;1747412;80;20992;-80
2022/12/24 10:23:41;;;;;;;11.28;5.45;;;;;;;8.04;100.00;97320.31;1745902;81;21059;-79
2022/12/24 10:26:26;;;;;;;9.85;5.37;;;;;;;7.98;100.00;97319.53;1755830;81;20980;-79
2022/12/24 10:29:03;;;;;;;10.23;5.67;;;;;;;7.95;100.00;97312.52;1750441;81;21062;-79
2022/12/24 10:31:37;;;;;;;10.40;5.72;;;;;;;7.95;100.00;97312.52;1732259;81;21515;-80
2022/12/24 10:34:08;;;;;;;8.33;5.08;;;;;;;8.00;100.00;97328.14;1774679;80;21024;-79
2022/12/24 10:36:35;;;;;;;7.80;4.25;;;;;;;8.00;100.00;97328.14;1767986;80;21423;-79
2022/12/24 10:39:02;;;;;;;11.00;4.62;;;;;;;8.04;100.00;97336.50;1738559;80;21031;-80
2022/12/24 10:41:29;;;;;;;13.22;6.45;;;;;;;7.97;100.00;97334.66;1782393;80;20973;-80
2022/12/24 10:43:56;;;;;;;7.33;4.28;;;;;;;7.90;100.00;97340.35;1761916;81;20985;-80
2022/12/24 10:46:34;;;;;;;10.10;4.60;;;;;;;7.86;100.00;97340.11;1776653;80;21012;-80
2022/12/24 10:49:04;;;;;;;12.27;4.77;;;;;;;7.86;100.00;97340.11;1793683;80;21363;-79
2022/12/24 10:52:00;;;;;;;15.78;4.87;;;;;;;7.82;100.00;97339.05;1772003;80;21013;-79
2022/12/24 10:54:28;;;;;;;28.62;13.13;;;;;;;7.78;100.00;97342.59;1762703;80;21037;-79
2022/12/24 10:56:58;;;;;;;22.77;10.20;;;;;;;7.75;100.00;97345.82;1752888;81;22236;-80
2022/12/24 10:59:44;;;;;;;12.30;6.45;;;;;;;7.68;100.00;97343.96;1746205;80;21087;-80
2022/12/24 11:02:31;;;;;;;20.75;10.90;;;;;;;7.68;100.00;97343.96;1793557;79;21009;-79
2022/12/24 11:04:59;;;;;;;37.53;21.65;;;;;;;7.70;100.00;97349.91;1741075;82;20968;-79
2022/12/24 11:07:28;;;;;;;138.20;69.95;;;;;;;7.64;100.00;97357.20;1747045;82;21252;-80
2022/12/24 11:09:59;;;;;;;21.23;12.88;;;;;;;7.61;100.00;97370.70;1745996;81;21825;-80
2022/12/24 11:12:29;;;;;;;16.35;12.80;;;;;;;7.57;100.00;97376.91;1748599;81;21020;-79
2022/12/24 11:15:16;;;;;;;16.15;10.88;;;;;;;7.50;100.00;97381.24;1747816;81;21025;-79
2022/12/24 11:18:03;;;;;;;63.30;23.38;;;;;;;7.45;100.00;97377.23;1777006;80;21144;-79
2022/12/24 11:20:33;;;;;;;20.15;11.00;;;;;;;7.45;100.00;97387.21;1793453;80;21489;-79
2022/12/24 11:23:01;;;;;;;24.67;8.95;;;;;;;7.42;100.00;97385.85;1793518;80;21018;-79
2022/12/24 11:25:32;;;;;;;66.28;24.47;;;;;;;7.45;100.00;97388.02;1755969;80;21421;-80
2022/12/24 11:28:19;;;;;;;32.23;23.73;;;;;;;7.48;100.00;97390.16;1723993;80;21082;-80
2022/12/24 11:30:56;;;;;;;83.12;31.12;;;;;;;7.50;100.00;97396.07;1752032;80;21013;-79
2022/12/24 11:33:23;;;;;;;118.50;45.58;;;;;;;7.50;100.00;97390.68;1753136;80;21023;-80
2022/12/24 11:36:04;;;;;;;25.50;11.30;;;;;;;7.48;100.00;97392.84;1753702;80;21516;-79
2022/12/24 11:38:32;;;;;;;12.95;8.55;;;;;;;7.58;100.00;97403.59;1759178;80;20968;-79
2022/12/24 11:41:10;;;;;;;37.17;21.33;;;;;;;7.62;100.00;97407.38;1769427;80;20980;-79
2022/12/24 11:43:45;;;;;;;214.47;65.17;;;;;;;7.67;100.00;97402.48;1751496;81;21062;-79
2022/12/24 11:46:28;;;;;;;32.83;15.23;;;;;;;7.73;100.00;97407.33;1761026;80;21220;-79